sensor_id;sensor_type;location;lat;lon;timestamp;pressure;altitude;pressure_sealevel;temperature;humidity
56052;BME280;41919;42.648;23.384;2023-01-29T00:00:31;94631.47;;;0.22;92.88
56052;BME280;41919;42.648;23.384;2023-01-29T00:02:56;94560.78;;;-0.22;93.05
56052;BME280;41919;42.648;23.384;2023-01-29T00:05:21;94575.81;;;-0.27;93.93
56052;BME280;41919;42.648;23.384;2023-01-29T00:07:47;94614.31;;;0.03;94.14
56052;BME280;41919;42.648;23.384;2023-01-29T00:10:12;94650.66;;;0.27;94.09
56052;BME280;41919;42.648;23.384;2023-01-29T00:12:38;94658.09;;;0.21;94.58
56052;BME280;41919;42.648;23.384;2023-01-29T00:15:04;94654.97;;;0.27;94.35
56052;BME280;41919;42.648;23.384;2023-01-29T00:17:30;94589.56;;;-0.08;93.13
56052;BME280;41919;42.648;23.384;2023-01-29T00:19:55;94655.91;;;0.35;93.13
56052;BME280;41919;42.648;23.384;2023-01-29T00:22:20;94673.09;;;0.45;92.50
56052;BME280;41919;42.648;23.384;2023-01-29T00:24:46;94677.00;;;0.49;92.18
56052;BME280;41919;42.648;23.384;2023-01-29T00:27:11;94594.31;;;-0.04;92.66
56052;BME280;41919;42.648;23.384;2023-01-29T00:29:37;94676.56;;;0.53;92.68
56052;BME280;41919;42.648;23.384;2023-01-29T00:32:02;94665.94;;;0.38;92.85
56052;BME280;41919;42.648;23.384;2023-01-29T00:34:28;94678.34;;;0.53;93.34
56052;BME280;41919;42.648;23.384;2023-01-29T00:36:53;94679.94;;;0.64;92.88
56052;BME280;41919;42.648;23.384;2023-01-29T00:39:31;94606.28;;;0.25;92.05
56052;BME280;41919;42.648;23.384;2023-01-29T00:42:04;94675.22;;;0.59;92.13
56052;BME280;41919;42.648;23.384;2023-01-29T00:44:48;94659.19;;;0.75;91.67
56052;BME280;41919;42.648;23.384;2023-01-29T00:47:23;94663.66;;;0.83;90.46
56052;BME280;41919;42.648;23.384;2023-01-29T00:49:59;94601.66;;;0.38;90.56
56052;BME280;41919;42.648;23.384;2023-01-29T00:52:26;94593.25;;;0.36;90.22
56052;BME280;41919;42.648;23.384;2023-01-29T00:54:56;94661.13;;;0.53;90.61
56052;BME280;41919;42.648;23.384;2023-01-29T00:57:23;94685.91;;;0.54;92.42
56052;BME280;41919;42.648;23.384;2023-01-29T00:59:49;94672.63;;;0.59;92.26
56052;BME280;41919;42.648;23.384;2023-01-29T01:02:14;94668.72;;;0.55;91.63
56052;BME280;41919;42.648;23.384;2023-01-29T01:04:59;94625.84;;;0.46;91.55
56052;BME280;41919;42.648;23.384;2023-01-29T01:07:26;94673.44;;;0.69;92.10
56052;BME280;41919;42.648;23.384;2023-01-29T01:09:52;94682.50;;;0.73;92.06
56052;BME280;41919;42.648;23.384;2023-01-29T01:12:36;94593.47;;;0.15;92.54
56052;BME280;41919;42.648;23.384;2023-01-29T01:15:01;94681.81;;;0.71;93.31
56052;BME280;41919;42.648;23.384;2023-01-29T01:17:27;94675.03;;;0.70;92.95
56052;BME280;41919;42.648;23.384;2023-01-29T01:19:52;94684.41;;;0.71;93.33
56052;BME280;41919;42.648;23.384;2023-01-29T01:22:17;94638.16;;;0.52;93.29
56052;BME280;41919;42.648;23.384;2023-01-29T01:24:43;94666.25;;;0.63;93.54
56052;BME280;41919;42.648;23.384;2023-01-29T01:27:09;94675.56;;;0.74;93.89
56052;BME280;41919;42.648;23.384;2023-01-29T01:29:34;94648.38;;;0.71;93.79
56052;BME280;41919;42.648;23.384;2023-01-29T01:32:00;94653.38;;;0.73;93.62
56052;BME280;41919;42.648;23.384;2023-01-29T01:34:26;94669.47;;;0.85;93.12
56052;BME280;41919;42.648;23.384;2023-01-29T01:36:52;94648.88;;;0.85;92.94
56052;BME280;41919;42.648;23.384;2023-01-29T01:39:17;94591.88;;;0.42;92.29
56052;BME280;41919;42.648;23.384;2023-01-29T01:41:43;94655.53;;;0.77;92.38
56052;BME280;41919;42.648;23.384;2023-01-29T01:47:12;94668.13;;;0.81;91.87
56052;BME280;41919;42.648;23.384;2023-01-29T01:49:37;94658.69;;;0.62;92.98
56052;BME280;41919;42.648;23.384;2023-01-29T01:52:03;94653.69;;;0.60;93.37
56052;BME280;41919;42.648;23.384;2023-01-29T01:54:30;94646.41;;;0.46;93.29
56052;BME280;41919;42.648;23.384;2023-01-29T01:57:17;94663.88;;;0.52;94.02
56052;BME280;41919;42.648;23.384;2023-01-29T02:00:13;94681.94;;;0.70;93.81
56052;BME280;41919;42.648;23.384;2023-01-29T02:02:41;94622.38;;;0.27;94.32
56052;BME280;41919;42.648;23.384;2023-01-29T02:05:28;94688.34;;;0.66;94.31
56052;BME280;41919;42.648;23.384;2023-01-29T02:08:13;94692.81;;;0.64;94.33
56052;BME280;41919;42.648;23.384;2023-01-29T02:10:58;94692.28;;;0.60;94.64
56052;BME280;41919;42.648;23.384;2023-01-29T02:13:25;94689.59;;;0.52;95.56
56052;BME280;41919;42.648;23.384;2023-01-29T02:15:51;94689.72;;;0.50;96.12
56052;BME280;41919;42.648;23.384;2023-01-29T02:18:19;94683.06;;;0.48;96.13
56052;BME280;41919;42.648;23.384;2023-01-29T02:35:31;94694.06;;;0.30;96.97
56052;BME280;41919;42.648;23.384;2023-01-29T02:38:12;94705.56;;;0.26;97.82
56052;BME280;41919;42.648;23.384;2023-01-29T02:40:56;94704.91;;;0.24;99.43
56052;BME280;41919;42.648;23.384;2023-01-29T02:43:50;94710.31;;;0.31;99.12
56052;BME280;41919;42.648;23.384;2023-01-29T02:46:38;94715.72;;;0.37;98.79
56052;BME280;41919;42.648;23.384;2023-01-29T02:49:26;94703.66;;;0.38;99.17
56052;BME280;41919;42.648;23.384;2023-01-29T02:52:21;94708.00;;;0.47;98.78
56052;BME280;41919;42.648;23.384;2023-01-29T02:54:58;94716.13;;;0.43;98.39
56052;BME280;41919;42.648;23.384;2023-01-29T02:57:33;94698.38;;;0.39;98.15
56052;BME280;41919;42.648;23.384;2023-01-29T03:00:09;94650.97;;;0.05;98.35
56052;BME280;41919;42.648;23.384;2023-01-29T03:02:47;94693.50;;;0.36;98.39
56052;BME280;41919;42.648;23.384;2023-01-29T03:05:19;94713.41;;;0.54;98.81
56052;BME280;41919;42.648;23.384;2023-01-29T03:07:52;94643.78;;;0.08;98.92
56052;BME280;41919;42.648;23.384;2023-01-29T03:10:22;94712.84;;;0.60;98.57
56052;BME280;41919;42.648;23.384;2023-01-29T03:13:01;94714.84;;;0.66;97.89
56052;BME280;41919;42.648;23.384;2023-01-29T03:15:34;94624.44;;;0.14;97.92
56052;BME280;41919;42.648;23.384;2023-01-29T03:18:19;94720.66;;;0.68;97.13
56052;BME280;41919;42.648;23.384;2023-01-29T03:20:53;94651.59;;;0.26;97.22
56052;BME280;41919;42.648;23.384;2023-01-29T03:23:30;94705.53;;;0.55;97.19
56052;BME280;41919;42.648;23.384;2023-01-29T03:26:19;94651.47;;;0.18;97.26
56052;BME280;41919;42.648;23.384;2023-01-29T03:29:05;94725.31;;;0.55;97.55
56052;BME280;41919;42.648;23.384;2023-01-29T03:31:52;94716.00;;;0.44;97.63
56052;BME280;41919;42.648;23.384;2023-01-29T03:34:29;94695.03;;;0.29;97.66
56052;BME280;41919;42.648;23.384;2023-01-29T03:39:27;94660.81;;;0.09;96.68
56052;BME280;41919;42.648;23.384;2023-01-29T03:42:07;94705.53;;;0.46;97.10
56052;BME280;41919;42.648;23.384;2023-01-29T03:45:12;94722.03;;;0.63;96.32
56052;BME280;41919;42.648;23.384;2023-01-29T03:47:53;94706.88;;;0.50;96.08
56052;BME280;41919;42.648;23.384;2023-01-29T03:51:06;94729.06;;;0.70;95.22
56052;BME280;41919;42.648;23.384;2023-01-29T03:53:57;94727.19;;;0.63;95.67
56052;BME280;41919;42.648;23.384;2023-01-29T03:56:41;94723.69;;;0.54;96.45
56052;BME280;41919;42.648;23.384;2023-01-29T04:01:55;94718.00;;;0.60;96.69
56052;BME280;41919;42.648;23.384;2023-01-29T04:04:37;94707.97;;;0.57;96.59
56052;BME280;41919;42.648;23.384;2023-01-29T04:07:09;94644.16;;;0.13;96.34
56052;BME280;41919;42.648;23.384;2023-01-29T04:09:44;94722.56;;;0.66;96.63
56052;BME280;41919;42.648;23.384;2023-01-29T04:12:13;94662.84;;;0.25;96.24
56052;BME280;41919;42.648;23.384;2023-01-29T04:14:39;94644.72;;;0.07;96.64
56052;BME280;41919;42.648;23.384;2023-01-29T04:17:13;94711.78;;;0.53;96.98
56052;BME280;41919;42.648;23.384;2023-01-29T04:19:40;94725.56;;;0.42;97.75
56052;BME280;41919;42.648;23.384;2023-01-29T04:22:11;94736.13;;;0.58;98.10
56052;BME280;41919;42.648;23.384;2023-01-29T04:24:40;94655.41;;;0.12;98.35
56052;BME280;41919;42.648;23.384;2023-01-29T04:32:53;94736.53;;;0.64;97.63
56052;BME280;41919;42.648;23.384;2023-01-29T04:43:06;94616.09;;;-0.27;97.31
56052;BME280;41919;42.648;23.384;2023-01-29T04:51:07;94732.59;;;0.69;95.60
56052;BME280;41919;42.648;23.384;2023-01-29T04:53:56;94735.69;;;0.63;95.46
56052;BME280;41919;42.648;23.384;2023-01-29T04:56:41;94750.59;;;0.69;95.39
56052;BME280;41919;42.648;23.384;2023-01-29T04:59:14;94676.06;;;0.30;94.83
56052;BME280;41919;42.648;23.384;2023-01-29T05:01:42;94749.94;;;0.67;94.94
56052;BME280;41919;42.648;23.384;2023-01-29T05:04:11;94678.41;;;0.24;95.50
56052;BME280;41919;42.648;23.384;2023-01-29T05:06:38;94748.44;;;0.65;95.09
56052;BME280;41919;42.648;23.384;2023-01-29T05:09:04;94749.63;;;0.70;94.91
56052;BME280;41919;42.648;23.384;2023-01-29T05:11:31;94672.16;;;0.26;94.92
56052;BME280;41919;42.648;23.384;2023-01-29T05:13:58;94753.16;;;0.79;94.65
56052;BME280;41919;42.648;23.384;2023-01-29T05:16:29;94754.53;;;0.73;94.52
56052;BME280;41919;42.648;23.384;2023-01-29T05:19:12;94683.53;;;0.24;95.01
56052;BME280;41919;42.648;23.384;2023-01-29T05:21:40;94690.72;;;0.20;94.77
56052;BME280;41919;42.648;23.384;2023-01-29T05:24:08;94752.34;;;0.59;95.00
56052;BME280;41919;42.648;23.384;2023-01-29T05:26:34;94757.91;;;0.74;94.65
56052;BME280;41919;42.648;23.384;2023-01-29T05:29:19;94748.19;;;0.58;94.21
56052;BME280;41919;42.648;23.384;2023-01-29T05:31:45;94757.38;;;0.61;95.12
56052;BME280;41919;42.648;23.384;2023-01-29T05:34:10;94715.03;;;0.35;94.22
56052;BME280;41919;42.648;23.384;2023-01-29T05:36:36;94764.50;;;0.76;93.97
56052;BME280;41919;42.648;23.384;2023-01-29T05:39:01;94758.72;;;0.55;94.13
56052;BME280;41919;42.648;23.384;2023-01-29T05:41:27;94752.91;;;0.63;94.24
56052;BME280;41919;42.648;23.384;2023-01-29T05:43:52;94764.13;;;0.71;94.18
56052;BME280;41919;42.648;23.384;2023-01-29T05:46:18;94711.13;;;0.31;94.84
56052;BME280;41919;42.648;23.384;2023-01-29T05:48:43;94773.19;;;0.75;94.20
56052;BME280;41919;42.648;23.384;2023-01-29T05:51:08;94768.59;;;0.79;94.44
56052;BME280;41919;42.648;23.384;2023-01-29T05:53:34;94774.44;;;0.71;95.06
56052;BME280;41919;42.648;23.384;2023-01-29T05:56:00;94691.38;;;0.32;94.71
56052;BME280;41919;42.648;23.384;2023-01-29T05:58:26;94766.53;;;0.73;94.34
56052;BME280;41919;42.648;23.384;2023-01-29T06:00:51;94781.03;;;0.84;94.37
56052;BME280;41919;42.648;23.384;2023-01-29T06:03:17;94791.75;;;0.79;94.68
56052;BME280;41919;42.648;23.384;2023-01-29T06:05:42;94778.91;;;0.69;94.88
56052;BME280;41919;42.648;23.384;2023-01-29T06:08:08;94787.69;;;0.67;95.03
56052;BME280;41919;42.648;23.384;2023-01-29T06:10:33;94778.38;;;0.56;95.84
56052;BME280;41919;42.648;23.384;2023-01-29T06:12:59;94802.75;;;0.52;96.20
56052;BME280;41919;42.648;23.384;2023-01-29T06:15:24;94726.56;;;0.02;97.13
56052;BME280;41919;42.648;23.384;2023-01-29T06:17:52;94740.34;;;0.21;97.30
56052;BME280;41919;42.648;23.384;2023-01-29T06:20:18;94785.94;;;0.57;97.07
56052;BME280;41919;42.648;23.384;2023-01-29T06:22:43;94810.03;;;0.66;96.64
56052;BME280;41919;42.648;23.384;2023-01-29T06:25:09;94806.63;;;0.75;96.36
56052;BME280;41919;42.648;23.384;2023-01-29T06:27:34;94738.75;;;0.19;96.97
56052;BME280;41919;42.648;23.384;2023-01-29T06:30:00;94689.38;;;0.06;96.38
56052;BME280;41919;42.648;23.384;2023-01-29T06:32:26;94758.31;;;0.50;96.07
56052;BME280;41919;42.648;23.384;2023-01-29T06:34:51;94817.56;;;0.97;95.68
56052;BME280;41919;42.648;23.384;2023-01-29T06:37:17;94809.19;;;0.95;95.31
56052;BME280;41919;42.648;23.384;2023-01-29T06:39:42;94809.06;;;0.87;94.85
56052;BME280;41919;42.648;23.384;2023-01-29T06:42:08;94760.88;;;0.50;94.35
56052;BME280;41919;42.648;23.384;2023-01-29T06:44:35;94778.59;;;0.72;94.75
56052;BME280;41919;42.648;23.384;2023-01-29T06:47:00;94819.22;;;0.98;95.41
56052;BME280;41919;42.648;23.384;2023-01-29T06:49:26;94757.66;;;0.67;95.13
56052;BME280;41919;42.648;23.384;2023-01-29T06:51:51;94781.69;;;0.95;94.26
56052;BME280;41919;42.648;23.384;2023-01-29T06:54:16;94723.31;;;0.39;93.65
56052;BME280;41919;42.648;23.384;2023-01-29T06:56:42;94849.81;;;1.01;94.19
56052;BME280;41919;42.648;23.384;2023-01-29T06:59:07;94846.25;;;1.22;100.00
56052;BME280;41919;42.648;23.384;2023-01-29T07:01:33;94771.38;;;0.95;100.00
56052;BME280;41919;42.648;23.384;2023-01-29T07:03:58;94771.66;;;1.02;100.00
56052;BME280;41919;42.648;23.384;2023-01-29T07:06:28;94839.06;;;1.63;100.00
56052;BME280;41919;42.648;23.384;2023-01-29T07:08:53;94753.47;;;1.13;96.91
56052;BME280;41919;42.648;23.384;2023-01-29T07:11:19;94849.34;;;1.72;94.20
56052;BME280;41919;42.648;23.384;2023-01-29T07:13:44;94855.28;;;1.83;94.38
56052;BME280;41919;42.648;23.384;2023-01-29T07:16:09;94799.22;;;1.57;98.11
56052;BME280;41919;42.648;23.384;2023-01-29T07:18:35;94853.72;;;2.00;99.67
56052;BME280;41919;42.648;23.384;2023-01-29T07:21:05;94859.16;;;2.14;96.77
56052;BME280;41919;42.648;23.384;2023-01-29T07:23:32;94840.59;;;2.11;94.39
56052;BME280;41919;42.648;23.384;2023-01-29T07:26:02;94856.91;;;2.29;91.60
56052;BME280;41919;42.648;23.384;2023-01-29T07:28:27;94718.28;;;1.32;90.26
56052;BME280;41919;42.648;23.384;2023-01-29T07:30:59;94860.88;;;2.24;88.88
56052;BME280;41919;42.648;23.384;2023-01-29T07:33:25;94785.09;;;1.71;89.74
56052;BME280;41919;42.648;23.384;2023-01-29T07:35:51;94872.91;;;2.33;89.83
56052;BME280;41919;42.648;23.384;2023-01-29T07:38:17;94873.66;;;2.43;87.65
56052;BME280;41919;42.648;23.384;2023-01-29T07:40:42;94801.91;;;2.11;86.50
56052;BME280;41919;42.648;23.384;2023-01-29T07:43:08;94872.56;;;2.46;85.92
56052;BME280;41919;42.648;23.384;2023-01-29T07:45:36;94870.88;;;2.37;86.46
56052;BME280;41919;42.648;23.384;2023-01-29T07:48:03;94792.59;;;1.82;86.93
56052;BME280;41919;42.648;23.384;2023-01-29T07:50:29;94883.69;;;2.28;87.02
56052;BME280;41919;42.648;23.384;2023-01-29T07:52:55;94846.19;;;2.06;87.35
56052;BME280;41919;42.648;23.384;2023-01-29T07:55:21;94876.56;;;2.12;87.62
56052;BME280;41919;42.648;23.384;2023-01-29T07:57:47;94870.66;;;2.02;88.40
56052;BME280;41919;42.648;23.384;2023-01-29T08:00:13;94885.84;;;1.95;88.12
56052;BME280;41919;42.648;23.384;2023-01-29T08:02:40;94877.75;;;1.90;91.03
56052;BME280;41919;42.648;23.384;2023-01-29T08:05:06;94839.72;;;1.65;96.90
56052;BME280;41919;42.648;23.384;2023-01-29T08:07:32;94832.50;;;1.78;96.44
56052;BME280;41919;42.648;23.384;2023-01-29T08:09:57;94817.19;;;1.76;95.44
56052;BME280;41919;42.648;23.384;2023-01-29T08:12:23;94883.00;;;2.26;93.91
56052;BME280;41919;42.648;23.384;2023-01-29T08:14:48;94814.94;;;1.91;89.40
56052;BME280;41919;42.648;23.384;2023-01-29T08:17:14;94851.44;;;2.14;87.71
56052;BME280;41919;42.648;23.384;2023-01-29T08:19:40;94826.38;;;2.07;86.31
56052;BME280;41919;42.648;23.384;2023-01-29T08:22:05;94834.22;;;2.15;85.21
56052;BME280;41919;42.648;23.384;2023-01-29T08:24:31;94895.88;;;2.54;85.41
56052;BME280;41919;42.648;23.384;2023-01-29T08:26:57;94877.81;;;2.36;85.20
56052;BME280;41919;42.648;23.384;2023-01-29T08:29:22;94894.06;;;2.37;85.95
56052;BME280;41919;42.648;23.384;2023-01-29T08:31:48;94894.34;;;2.33;85.41
56052;BME280;41919;42.648;23.384;2023-01-29T08:34:13;94887.91;;;2.20;86.12
56052;BME280;41919;42.648;23.384;2023-01-29T08:36:39;94862.47;;;2.07;85.32
56052;BME280;41919;42.648;23.384;2023-01-29T08:39:05;94879.75;;;2.24;85.40
56052;BME280;41919;42.648;23.384;2023-01-29T08:41:30;94905.72;;;2.41;84.54
56052;BME280;41919;42.648;23.384;2023-01-29T08:43:56;94895.22;;;2.24;84.37
56052;BME280;41919;42.648;23.384;2023-01-29T08:46:22;94899.00;;;2.02;85.35
56052;BME280;41919;42.648;23.384;2023-01-29T08:48:48;94817.03;;;1.50;85.49
56052;BME280;41919;42.648;23.384;2023-01-29T08:51:13;94838.56;;;1.49;85.21
56052;BME280;41919;42.648;23.384;2023-01-29T08:53:39;94917.84;;;2.03;85.95
56052;BME280;41919;42.648;23.384;2023-01-29T08:56:04;94890.53;;;1.82;86.73
56052;BME280;41919;42.648;23.384;2023-01-29T08:58:30;94865.75;;;1.71;86.48
56052;BME280;41919;42.648;23.384;2023-01-29T09:00:55;94874.50;;;1.88;85.78
56052;BME280;41919;42.648;23.384;2023-01-29T09:03:21;94853.81;;;1.70;84.96
56052;BME280;41919;42.648;23.384;2023-01-29T09:05:47;94933.66;;;2.18;84.89
56052;BME280;41919;42.648;23.384;2023-01-29T09:08:13;94926.50;;;2.11;84.80
56052;BME280;41919;42.648;23.384;2023-01-29T09:10:39;94930.34;;;2.07;85.00
56052;BME280;41919;42.648;23.384;2023-01-29T09:13:05;94930.84;;;2.11;84.29
56052;BME280;41919;42.648;23.384;2023-01-29T09:15:30;94928.81;;;2.05;84.08
56052;BME280;41919;42.648;23.384;2023-01-29T09:17:56;94919.75;;;2.01;84.79
56052;BME280;41919;42.648;23.384;2023-01-29T09:20:21;94927.84;;;2.15;85.90
56052;BME280;41919;42.648;23.384;2023-01-29T09:22:47;94891.53;;;1.99;86.00
56052;BME280;41919;42.648;23.384;2023-01-29T09:25:15;94928.56;;;2.08;84.45
56052;BME280;41919;42.648;23.384;2023-01-29T09:27:40;94920.03;;;2.07;84.88
56052;BME280;41919;42.648;23.384;2023-01-29T09:30:06;94845.31;;;1.60;85.28
56052;BME280;41919;42.648;23.384;2023-01-29T09:32:33;94866.00;;;1.78;84.24
56052;BME280;41919;42.648;23.384;2023-01-29T09:34:58;94925.53;;;2.12;83.77
56052;BME280;41919;42.648;23.384;2023-01-29T09:37:24;94919.19;;;2.07;84.54
56052;BME280;41919;42.648;23.384;2023-01-29T09:39:49;94867.91;;;1.76;85.17
56052;BME280;41919;42.648;23.384;2023-01-29T09:42:23;94915.75;;;2.16;84.92
56052;BME280;41919;42.648;23.384;2023-01-29T09:47:26;94845.28;;;1.70;84.04
56052;BME280;41919;42.648;23.384;2023-01-29T09:55:25;94903.44;;;2.10;83.52
56052;BME280;41919;42.648;23.384;2023-01-29T09:57:59;94825.91;;;1.66;82.72
56052;BME280;41919;42.648;23.384;2023-01-29T10:14:07;94889.31;;;2.14;82.92
56052;BME280;41919;42.648;23.384;2023-01-29T10:22:30;94890.25;;;2.41;82.45
56052;BME280;41919;42.648;23.384;2023-01-29T10:25:04;94879.91;;;2.23;81.56
56052;BME280;41919;42.648;23.384;2023-01-29T10:27:37;94802.41;;;1.79;82.15
56052;BME280;41919;42.648;23.384;2023-01-29T10:30:07;94875.75;;;2.12;82.42
56052;BME280;41919;42.648;23.384;2023-01-29T10:32:36;94881.97;;;2.19;82.68
56052;BME280;41919;42.648;23.384;2023-01-29T10:35:05;94813.88;;;1.56;84.04
56052;BME280;41919;42.648;23.384;2023-01-29T10:37:41;94875.53;;;1.95;84.03
56052;BME280;41919;42.648;23.384;2023-01-29T10:40:21;94877.00;;;2.08;84.19
56052;BME280;41919;42.648;23.384;2023-01-29T10:45:57;94875.28;;;1.99;85.59
56052;BME280;41919;42.648;23.384;2023-01-29T10:48:39;94873.31;;;1.83;86.01
56052;BME280;41919;42.648;23.384;2023-01-29T10:56:52;94870.06;;;2.08;83.85
56052;BME280;41919;42.648;23.384;2023-01-29T11:02:01;94800.75;;;1.77;83.46
56052;BME280;41919;42.648;23.384;2023-01-29T11:04:29;94857.69;;;2.12;83.50
56052;BME280;41919;42.648;23.384;2023-01-29T11:06:56;94847.38;;;2.12;83.56
56052;BME280;41919;42.648;23.384;2023-01-29T11:09:31;94860.50;;;2.19;83.25
56052;BME280;41919;42.648;23.384;2023-01-29T11:12:13;94858.25;;;2.33;83.75
56052;BME280;41919;42.648;23.384;2023-01-29T11:17:35;94856.84;;;2.39;82.79
56052;BME280;41919;42.648;23.384;2023-01-29T11:20:00;94856.63;;;2.32;83.06
56052;BME280;41919;42.648;23.384;2023-01-29T11:22:28;94867.69;;;2.43;82.19
56052;BME280;41919;42.648;23.384;2023-01-29T11:27:42;94848.31;;;2.39;81.79
56052;BME280;41919;42.648;23.384;2023-01-29T11:30:33;94854.53;;;2.46;82.39
56052;BME280;41919;42.648;23.384;2023-01-29T11:35:32;94839.19;;;2.62;81.17
56052;BME280;41919;42.648;23.384;2023-01-29T11:40:40;94813.19;;;2.82;80.10
56052;BME280;41919;42.648;23.384;2023-01-29T11:43:28;94818.66;;;2.97;79.22
56052;BME280;41919;42.648;23.384;2023-01-29T11:46:05;94739.28;;;2.54;79.75
56052;BME280;41919;42.648;23.384;2023-01-29T11:48:44;94816.03;;;3.14;78.18
56052;BME280;41919;42.648;23.384;2023-01-29T11:51:20;94805.44;;;3.00;78.45
56052;BME280;41919;42.648;23.384;2023-01-29T11:53:55;94792.28;;;3.11;85.92
56052;BME280;41919;42.648;23.384;2023-01-29T11:56:37;94754.56;;;2.92;81.40
56052;BME280;41919;42.648;23.384;2023-01-29T11:59:03;94817.00;;;3.40;83.67
56052;BME280;41919;42.648;23.384;2023-01-29T12:01:33;94822.81;;;3.42;78.27
56052;BME280;41919;42.648;23.384;2023-01-29T12:04:01;94813.03;;;3.53;77.82
56052;BME280;41919;42.648;23.384;2023-01-29T12:06:36;94752.06;;;3.08;77.19
56052;BME280;41919;42.648;23.384;2023-01-29T12:09:09;94797.59;;;3.36;77.08
56052;BME280;41919;42.648;23.384;2023-01-29T12:11:35;94807.09;;;3.35;77.69
56052;BME280;41919;42.648;23.384;2023-01-29T12:14:19;94814.13;;;3.17;77.82
56052;BME280;41919;42.648;23.384;2023-01-29T12:16:58;94815.16;;;3.06;78.33
56052;BME280;41919;42.648;23.384;2023-01-29T12:19:52;94810.25;;;2.94;79.17
56052;BME280;41919;42.648;23.384;2023-01-29T12:25:08;94744.03;;;2.59;78.95
56052;BME280;41919;42.648;23.384;2023-01-29T12:27:52;94813.19;;;3.26;77.65
56052;BME280;41919;42.648;23.384;2023-01-29T12:30:26;94809.63;;;3.19;77.45
56052;BME280;41919;42.648;23.384;2023-01-29T12:35:53;94795.22;;;2.72;83.53
56052;BME280;41919;42.648;23.384;2023-01-29T12:38:22;94746.47;;;2.43;80.05
56052;BME280;41919;42.648;23.384;2023-01-29T12:43:55;94759.63;;;2.40;80.37
56052;BME280;41919;42.648;23.384;2023-01-29T12:46:32;94812.34;;;2.73;80.34
56052;BME280;41919;42.648;23.384;2023-01-29T12:49:09;94739.09;;;2.30;79.97
56052;BME280;41919;42.648;23.384;2023-01-29T12:51:41;94817.88;;;2.78;79.92
56052;BME280;41919;42.648;23.384;2023-01-29T12:54:16;94822.13;;;2.87;80.50
56052;BME280;41919;42.648;23.384;2023-01-29T12:56:47;94820.28;;;2.98;79.74
56052;BME280;41919;42.648;23.384;2023-01-29T13:05:19;94814.78;;;2.74;80.46
56052;BME280;41919;42.648;23.384;2023-01-29T13:07:51;94817.59;;;2.63;79.82
56052;BME280;41919;42.648;23.384;2023-01-29T13:10:21;94784.34;;;2.42;80.23
56052;BME280;41919;42.648;23.384;2023-01-29T13:13:02;94763.13;;;2.30;81.00
56052;BME280;41919;42.648;23.384;2023-01-29T13:15:36;94805.72;;;2.70;80.13
56052;BME280;41919;42.648;23.384;2023-01-29T13:18:35;94745.56;;;2.16;80.34
56052;BME280;41919;42.648;23.384;2023-01-29T13:21:03;94795.97;;;2.64;80.10
56052;BME280;41919;42.648;23.384;2023-01-29T13:23:37;94740.34;;;2.44;79.40
56052;BME280;41919;42.648;23.384;2023-01-29T13:26:04;94679.59;;;2.05;78.37
56052;BME280;41919;42.648;23.384;2023-01-29T13:28:30;94815.88;;;2.90;79.11
56052;BME280;41919;42.648;23.384;2023-01-29T13:36:46;94768.09;;;2.68;77.81
56052;BME280;41919;42.648;23.384;2023-01-29T13:39:21;94796.06;;;2.72;79.13
56052;BME280;41919;42.648;23.384;2023-01-29T13:41:49;94827.13;;;2.89;78.45
56052;BME280;41919;42.648;23.384;2023-01-29T13:44:36;94769.59;;;2.52;79.30
56052;BME280;41919;42.648;23.384;2023-01-29T13:47:10;94834.38;;;2.85;79.93
56052;BME280;41919;42.648;23.384;2023-01-29T13:49:52;94755.84;;;2.44;79.42
56052;BME280;41919;42.648;23.384;2023-01-29T13:52:41;94815.59;;;2.75;79.06
56052;BME280;41919;42.648;23.384;2023-01-29T14:10:39;94828.13;;;1.88;81.37
56052;BME280;41919;42.648;23.384;2023-01-29T14:18:35;94848.16;;;1.94;82.30
56052;BME280;41919;42.648;23.384;2023-01-29T14:21:22;94843.28;;;1.91;82.79
56052;BME280;41919;42.648;23.384;2023-01-29T14:24:06;94839.56;;;1.76;82.06
56052;BME280;41919;42.648;23.384;2023-01-29T14:26:39;94857.72;;;1.74;81.92
56052;BME280;41919;42.648;23.384;2023-01-29T14:29:22;94863.28;;;1.80;81.96
56052;BME280;41919;42.648;23.384;2023-01-29T14:32:17;94847.72;;;1.71;81.76
56052;BME280;41919;42.648;23.384;2023-01-29T14:34:58;94808.69;;;1.29;82.37
56052;BME280;41919;42.648;23.384;2023-01-29T14:37:34;94872.81;;;1.69;82.61
56052;BME280;41919;42.648;23.384;2023-01-29T14:43:00;94871.59;;;1.73;82.54
56052;BME280;41919;42.648;23.384;2023-01-29T14:48:08;94874.28;;;1.72;83.29
56052;BME280;41919;42.648;23.384;2023-01-29T14:50:47;94867.28;;;1.64;83.37
56052;BME280;41919;42.648;23.384;2023-01-29T14:53:16;94875.09;;;1.72;84.23
56052;BME280;41919;42.648;23.384;2023-01-29T14:55:51;94874.06;;;1.65;84.24
56052;BME280;41919;42.648;23.384;2023-01-29T14:58:24;94871.31;;;1.67;84.48
56052;BME280;41919;42.648;23.384;2023-01-29T15:00:53;94791.13;;;1.14;84.63
56052;BME280;41919;42.648;23.384;2023-01-29T15:04:02;94866.19;;;1.57;85.16
56052;BME280;41919;42.648;23.384;2023-01-29T15:06:40;94784.69;;;0.91;86.45
56052;BME280;41919;42.648;23.384;2023-01-29T15:09:33;94856.63;;;1.40;86.17
56052;BME280;41919;42.648;23.384;2023-01-29T15:15:39;94863.66;;;1.47;86.85
56052;BME280;41919;42.648;23.384;2023-01-29T15:20:38;94853.91;;;1.41;87.49
56052;BME280;41919;42.648;23.384;2023-01-29T15:25:54;94862.84;;;1.47;87.42
56052;BME280;41919;42.648;23.384;2023-01-29T15:28:20;94855.16;;;1.37;87.59
56052;BME280;41919;42.648;23.384;2023-01-29T15:30:52;94872.50;;;1.35;87.84
56052;BME280;41919;42.648;23.384;2023-01-29T15:33:18;94795.00;;;0.81;88.52
56052;BME280;41919;42.648;23.384;2023-01-29T15:35:45;94876.31;;;1.31;88.73
56052;BME280;41919;42.648;23.384;2023-01-29T15:40:40;94794.44;;;0.77;87.62
56052;BME280;41919;42.648;23.384;2023-01-29T15:45:51;94877.97;;;1.12;88.32
56052;BME280;41919;42.648;23.384;2023-01-29T15:48:30;94888.00;;;1.15;88.57
56052;BME280;41919;42.648;23.384;2023-01-29T15:50:57;94877.41;;;1.18;88.46
56052;BME280;41919;42.648;23.384;2023-01-29T15:53:36;94862.28;;;1.06;88.32